sensor_id;sensor_type;location;lat;lon;timestamp;P1;durP1;ratioP1;P2;durP2;ratioP2
31308;SDS011;17936;52.446;10.840;2023-06-22T00:01:52;11.32;;;8.30;;
31308;SDS011;17936;52.446;10.840;2023-06-22T00:04:18;10.52;;;8.20;;
31308;SDS011;17936;52.446;10.840;2023-06-22T00:06:44;13.55;;;8.65;;
31308;SDS011;17936;52.446;10.840;2023-06-22T00:09:09;14.95;;;9.45;;
31308;SDS011;17936;52.446;10.840;2023-06-22T00:11:35;10.77;;;8.45;;
31308;SDS011;17936;52.446;10.840;2023-06-22T00:14:02;12.02;;;8.68;;
31308;SDS011;17936;52.446;10.840;2023-06-22T00:16:28;10.77;;;8.52;;
31308;SDS011;17936;52.446;10.840;2023-06-22T00:18:53;10.93;;;8.48;;
31308;SDS011;17936;52.446;10.840;2023-06-22T00:21:19;15.15;;;8.63;;
31308;SDS011;17936;52.446;10.840;2023-06-22T00:23:47;18.42;;;9.27;;
31308;SDS011;17936;52.446;10.840;2023-06-22T00:26:13;11.07;;;9.18;;
31308;SDS011;17936;52.446;10.840;2023-06-22T00:28:39;10.70;;;8.85;;
31308;SDS011;17936;52.446;10.840;2023-06-22T00:31:04;14.50;;;9.48;;
31308;SDS011;17936;52.446;10.840;2023-06-22T00:33:30;13.15;;;9.18;;
31308;SDS011;17936;52.446;10.840;2023-06-22T00:35:56;11.02;;;9.43;;
31308;SDS011;17936;52.446;10.840;2023-06-22T00:38:22;10.82;;;8.32;;
31308;SDS011;17936;52.446;10.840;2023-06-22T00:40:47;11.77;;;8.20;;
31308;SDS011;17936;52.446;10.840;2023-06-22T00:43:13;9.82;;;7.93;;
31308;SDS011;17936;52.446;10.840;2023-06-22T00:45:39;10.50;;;8.30;;
31308;SDS011;17936;52.446;10.840;2023-06-22T00:48:05;11.02;;;8.55;;
31308;SDS011;17936;52.446;10.840;2023-06-22T00:50:32;10.90;;;8.82;;
31308;SDS011;17936;52.446;10.840;2023-06-22T00:53:00;10.68;;;8.80;;
31308;SDS011;17936;52.446;10.840;2023-06-22T00:55:33;11.90;;;8.60;;
31308;SDS011;17936;52.446;10.840;2023-06-22T00:58:08;10.85;;;9.07;;
31308;SDS011;17936;52.446;10.840;2023-06-22T01:00:35;9.65;;;8.63;;
31308;SDS011;17936;52.446;10.840;2023-06-22T01:03:02;11.40;;;9.02;;
31308;SDS011;17936;52.446;10.840;2023-06-22T01:05:28;11.60;;;9.40;;
31308;SDS011;17936;52.446;10.840;2023-06-22T01:10:38;11.93;;;9.25;;
31308;SDS011;17936;52.446;10.840;2023-06-22T01:13:14;13.30;;;9.20;;
31308;SDS011;17936;52.446;10.840;2023-06-22T01:15:46;10.82;;;9.20;;
31308;SDS011;17936;52.446;10.840;2023-06-22T01:18:21;10.95;;;8.70;;
31308;SDS011;17936;52.446;10.840;2023-06-22T01:20:50;14.40;;;9.43;;
31308;SDS011;17936;52.446;10.840;2023-06-22T01:26:12;11.20;;;9.52;;
31308;SDS011;17936;52.446;10.840;2023-06-22T01:29:01;10.85;;;8.48;;
31308;SDS011;17936;52.446;10.840;2023-06-22T01:31:29;13.52;;;9.02;;
31308;SDS011;17936;52.446;10.840;2023-06-22T01:33:58;11.98;;;9.75;;
31308;SDS011;17936;52.446;10.840;2023-06-22T01:36:26;11.40;;;8.43;;
31308;SDS011;17936;52.446;10.840;2023-06-22T01:38:52;13.32;;;9.60;;
31308;SDS011;17936;52.446;10.840;2023-06-22T01:41:19;10.93;;;8.75;;
31308;SDS011;17936;52.446;10.840;2023-06-22T01:43:46;14.05;;;9.90;;
31308;SDS011;17936;52.446;10.840;2023-06-22T01:46:12;11.38;;;8.60;;
31308;SDS011;17936;52.446;10.840;2023-06-22T01:48:39;10.52;;;8.60;;
31308;SDS011;17936;52.446;10.840;2023-06-22T01:51:05;12.15;;;8.95;;
31308;SDS011;17936;52.446;10.840;2023-06-22T01:53:31;13.27;;;8.50;;
31308;SDS011;17936;52.446;10.840;2023-06-22T01:55:57;11.40;;;8.45;;
31308;SDS011;17936;52.446;10.840;2023-06-22T01:58:26;12.00;;;8.57;;
31308;SDS011;17936;52.446;10.840;2023-06-22T02:00:58;12.35;;;9.15;;
31308;SDS011;17936;52.446;10.840;2023-06-22T02:03:36;13.85;;;9.13;;
31308;SDS011;17936;52.446;10.840;2023-06-22T02:06:06;11.10;;;9.23;;
31308;SDS011;17936;52.446;10.840;2023-06-22T02:08:44;11.35;;;9.35;;
31308;SDS011;17936;52.446;10.840;2023-06-22T02:11:13;15.88;;;9.07;;
31308;SDS011;17936;52.446;10.840;2023-06-22T02:13:41;11.35;;;8.80;;
31308;SDS011;17936;52.446;10.840;2023-06-22T02:16:08;12.13;;;9.52;;
31308;SDS011;17936;52.446;10.840;2023-06-22T02:18:36;18.33;;;10.60;;
31308;SDS011;17936;52.446;10.840;2023-06-22T02:21:02;11.70;;;9.38;;
31308;SDS011;17936;52.446;10.840;2023-06-22T02:23:27;11.88;;;9.23;;
31308;SDS011;17936;52.446;10.840;2023-06-22T02:25:53;13.95;;;9.23;;
31308;SDS011;17936;52.446;10.840;2023-06-22T02:28:19;12.15;;;9.57;;
31308;SDS011;17936;52.446;10.840;2023-06-22T02:30:44;12.30;;;9.45;;
31308;SDS011;17936;52.446;10.840;2023-06-22T02:33:10;18.00;;;9.77;;
31308;SDS011;17936;52.446;10.840;2023-06-22T02:35:35;10.63;;;9.10;;
31308;SDS011;17936;52.446;10.840;2023-06-22T02:38:01;13.63;;;10.45;;
31308;SDS011;17936;52.446;10.840;2023-06-22T02:40:28;12.55;;;9.75;;
31308;SDS011;17936;52.446;10.840;2023-06-22T02:42:55;15.30;;;9.55;;
31308;SDS011;17936;52.446;10.840;2023-06-22T02:45:23;13.80;;;9.57;;
31308;SDS011;17936;52.446;10.840;2023-06-22T02:47:48;12.45;;;9.73;;
31308;SDS011;17936;52.446;10.840;2023-06-22T02:50:14;10.68;;;9.13;;
31308;SDS011;17936;52.446;10.840;2023-06-22T02:52:39;12.40;;;9.07;;
31308;SDS011;17936;52.446;10.840;2023-06-22T02:55:05;12.95;;;9.65;;
31308;SDS011;17936;52.446;10.840;2023-06-22T02:57:32;11.82;;;9.43;;
31308;SDS011;17936;52.446;10.840;2023-06-22T02:59:57;14.23;;;9.15;;
31308;SDS011;17936;52.446;10.840;2023-06-22T03:02:23;12.07;;;9.40;;
31308;SDS011;17936;52.446;10.840;2023-06-22T03:04:51;12.07;;;9.82;;
31308;SDS011;17936;52.446;10.840;2023-06-22T03:07:18;10.95;;;9.25;;
31308;SDS011;17936;52.446;10.840;2023-06-22T03:09:44;11.18;;;8.65;;
31308;SDS011;17936;52.446;10.840;2023-06-22T03:12:10;11.65;;;9.25;;
31308;SDS011;17936;52.446;10.840;2023-06-22T03:14:36;11.77;;;9.68;;
31308;SDS011;17936;52.446;10.840;2023-06-22T03:17:01;13.73;;;9.50;;
31308;SDS011;17936;52.446;10.840;2023-06-22T03:19:28;11.90;;;9.68;;
31308;SDS011;17936;52.446;10.840;2023-06-22T03:21:56;10.60;;;8.65;;
31308;SDS011;17936;52.446;10.840;2023-06-22T03:24:22;15.93;;;9.20;;
31308;SDS011;17936;52.446;10.840;2023-06-22T03:26:47;12.00;;;8.07;;
31308;SDS011;17936;52.446;10.840;2023-06-22T03:29:13;11.30;;;8.55;;
31308;SDS011;17936;52.446;10.840;2023-06-22T03:31:39;11.55;;;8.48;;
31308;SDS011;17936;52.446;10.840;2023-06-22T03:34:04;11.27;;;8.52;;
31308;SDS011;17936;52.446;10.840;2023-06-22T03:36:29;12.93;;;7.95;;
31308;SDS011;17936;52.446;10.840;2023-06-22T03:38:55;12.32;;;9.00;;
31308;SDS011;17936;52.446;10.840;2023-06-22T03:41:20;12.68;;;8.80;;
31308;SDS011;17936;52.446;10.840;2023-06-22T03:43:46;10.32;;;8.00;;
31308;SDS011;17936;52.446;10.840;2023-06-22T03:46:12;10.27;;;8.55;;
31308;SDS011;17936;52.446;10.840;2023-06-22T03:48:37;9.63;;;8.25;;
31308;SDS011;17936;52.446;10.840;2023-06-22T03:51:03;12.68;;;8.45;;
31308;SDS011;17936;52.446;10.840;2023-06-22T03:53:29;11.07;;;8.60;;
31308;SDS011;17936;52.446;10.840;2023-06-22T03:55:55;13.95;;;8.10;;
31308;SDS011;17936;52.446;10.840;2023-06-22T03:58:21;10.93;;;8.50;;
31308;SDS011;17936;52.446;10.840;2023-06-22T04:00:47;13.10;;;9.10;;
31308;SDS011;17936;52.446;10.840;2023-06-22T04:03:13;10.90;;;8.75;;
31308;SDS011;17936;52.446;10.840;2023-06-22T04:05:40;10.13;;;8.40;;
31308;SDS011;17936;52.446;10.840;2023-06-22T04:08:06;12.77;;;8.20;;
31308;SDS011;17936;52.446;10.840;2023-06-22T04:10:31;16.05;;;8.82;;
31308;SDS011;17936;52.446;10.840;2023-06-22T04:12:57;13.10;;;8.80;;
31308;SDS011;17936;52.446;10.840;2023-06-22T04:15:23;10.18;;;8.32;;
31308;SDS011;17936;52.446;10.840;2023-06-22T04:17:48;11.00;;;8.15;;
31308;SDS011;17936;52.446;10.840;2023-06-22T04:20:14;10.85;;;8.52;;
31308;SDS011;17936;52.446;10.840;2023-06-22T04:22:39;10.57;;;8.18;;
31308;SDS011;17936;52.446;10.840;2023-06-22T04:25:05;13.00;;;8.45;;
31308;SDS011;17936;52.446;10.840;2023-06-22T04:27:32;13.23;;;8.73;;
31308;SDS011;17936;52.446;10.840;2023-06-22T04:30:02;13.82;;;8.13;;
31308;SDS011;17936;52.446;10.840;2023-06-22T04:32:28;10.57;;;7.85;;
31308;SDS011;17936;52.446;10.840;2023-06-22T04:34:54;11.13;;;8.10;;
31308;SDS011;17936;52.446;10.840;2023-06-22T04:37:19;11.23;;;7.30;;
31308;SDS011;17936;52.446;10.840;2023-06-22T04:39:48;13.57;;;8.32;;
31308;SDS011;17936;52.446;10.840;2023-06-22T04:42:14;10.32;;;8.13;;
31308;SDS011;17936;52.446;10.840;2023-06-22T04:44:40;10.57;;;8.20;;
31308;SDS011;17936;52.446;10.840;2023-06-22T04:47:06;11.30;;;7.78;;
31308;SDS011;17936;52.446;10.840;2023-06-22T04:49:33;10.88;;;8.02;;
31308;SDS011;17936;52.446;10.840;2023-06-22T04:52:03;12.00;;;7.32;;
31308;SDS011;17936;52.446;10.840;2023-06-22T04:54:30;11.43;;;7.75;;
31308;SDS011;17936;52.446;10.840;2023-06-22T04:56:59;10.55;;;8.18;;
31308;SDS011;17936;52.446;10.840;2023-06-22T04:59:29;12.65;;;8.20;;
31308;SDS011;17936;52.446;10.840;2023-06-22T05:01:56;11.52;;;7.85;;
31308;SDS011;17936;52.446;10.840;2023-06-22T05:04:23;10.13;;;6.95;;
31308;SDS011;17936;52.446;10.840;2023-06-22T05:06:49;10.23;;;7.50;;
31308;SDS011;17936;52.446;10.840;2023-06-22T05:09:15;9.93;;;7.45;;
31308;SDS011;17936;52.446;10.840;2023-06-22T05:11:41;9.55;;;7.15;;
31308;SDS011;17936;52.446;10.840;2023-06-22T05:14:06;12.18;;;7.22;;
31308;SDS011;17936;52.446;10.840;2023-06-22T05:16:32;9.77;;;7.00;;
31308;SDS011;17936;52.446;10.840;2023-06-22T05:18:58;8.52;;;6.55;;
31308;SDS011;17936;52.446;10.840;2023-06-22T05:21:24;12.32;;;6.63;;
31308;SDS011;17936;52.446;10.840;2023-06-22T05:23:51;10.57;;;6.45;;
31308;SDS011;17936;52.446;10.840;2023-06-22T05:26:17;9.75;;;6.60;;
31308;SDS011;17936;52.446;10.840;2023-06-22T05:28:43;9.52;;;6.50;;
31308;SDS011;17936;52.446;10.840;2023-06-22T05:31:11;9.52;;;6.65;;
31308;SDS011;17936;52.446;10.840;2023-06-22T05:33:41;8.07;;;6.70;;
31308;SDS011;17936;52.446;10.840;2023-06-22T05:36:07;8.30;;;6.55;;
31308;SDS011;17936;52.446;10.840;2023-06-22T05:38:33;8.35;;;6.22;;
31308;SDS011;17936;52.446;10.840;2023-06-22T05:40:59;8.23;;;6.43;;
31308;SDS011;17936;52.446;10.840;2023-06-22T05:43:25;12.30;;;6.47;;
31308;SDS011;17936;52.446;10.840;2023-06-22T05:45:50;8.60;;;6.60;;
31308;SDS011;17936;52.446;10.840;2023-06-22T05:48:16;9.38;;;6.32;;
31308;SDS011;17936;52.446;10.840;2023-06-22T05:50:42;10.27;;;7.25;;
31308;SDS011;17936;52.446;10.840;2023-06-22T05:53:07;9.15;;;6.80;;
31308;SDS011;17936;52.446;10.840;2023-06-22T05:55:33;8.60;;;6.60;;
31308;SDS011;17936;52.446;10.840;2023-06-22T05:57:58;8.82;;;6.53;;
31308;SDS011;17936;52.446;10.840;2023-06-22T06:00:24;10.63;;;6.80;;
31308;SDS011;17936;52.446;10.840;2023-06-22T06:02:49;9.30;;;6.18;;
31308;SDS011;17936;52.446;10.840;2023-06-22T06:05:15;9.32;;;6.38;;
31308;SDS011;17936;52.446;10.840;2023-06-22T06:07:44;9.52;;;5.85;;
31308;SDS011;17936;52.446;10.840;2023-06-22T06:10:10;8.50;;;6.03;;
31308;SDS011;17936;52.446;10.840;2023-06-22T06:12:36;8.82;;;6.30;;
31308;SDS011;17936;52.446;10.840;2023-06-22T06:15:02;11.10;;;6.75;;
31308;SDS011;17936;52.446;10.840;2023-06-22T06:17:28;12.80;;;6.47;;
31308;SDS011;17936;52.446;10.840;2023-06-22T06:19:53;7.47;;;6.35;;
31308;SDS011;17936;52.446;10.840;2023-06-22T06:22:19;9.65;;;6.78;;
31308;SDS011;17936;52.446;10.840;2023-06-22T06:24:45;9.98;;;6.55;;
31308;SDS011;17936;52.446;10.840;2023-06-22T06:27:12;10.00;;;6.28;;
31308;SDS011;17936;52.446;10.840;2023-06-22T06:29:38;9.40;;;6.18;;
31308;SDS011;17936;52.446;10.840;2023-06-22T06:32:03;13.70;;;6.20;;
31308;SDS011;17936;52.446;10.840;2023-06-22T06:34:29;10.27;;;6.03;;
31308;SDS011;17936;52.446;10.840;2023-06-22T06:36:54;8.77;;;5.60;;
31308;SDS011;17936;52.446;10.840;2023-06-22T06:39:20;7.50;;;5.72;;
31308;SDS011;17936;52.446;10.840;2023-06-22T06:41:46;9.95;;;6.05;;
31308;SDS011;17936;52.446;10.840;2023-06-22T06:44:11;10.18;;;5.90;;
31308;SDS011;17936;52.446;10.840;2023-06-22T06:46:37;7.78;;;5.43;;
31308;SDS011;17936;52.446;10.840;2023-06-22T06:49:03;8.73;;;5.80;;
31308;SDS011;17936;52.446;10.840;2023-06-22T06:51:28;10.50;;;6.25;;
31308;SDS011;17936;52.446;10.840;2023-06-22T06:53:54;11.23;;;5.85;;
31308;SDS011;17936;52.446;10.840;2023-06-22T06:56:19;7.97;;;5.75;;
31308;SDS011;17936;52.446;10.840;2023-06-22T06:58:45;8.38;;;5.47;;
31308;SDS011;17936;52.446;10.840;2023-06-22T07:01:11;9.90;;;5.47;;
31308;SDS011;17936;52.446;10.840;2023-06-22T07:03:38;6.90;;;5.63;;
31308;SDS011;17936;52.446;10.840;2023-06-22T07:06:03;9.48;;;5.15;;
31308;SDS011;17936;52.446;10.840;2023-06-22T07:08:29;7.32;;;5.20;;
31308;SDS011;17936;52.446;10.840;2023-06-22T07:10:55;8.23;;;5.25;;
31308;SDS011;17936;52.446;10.840;2023-06-22T07:13:20;11.82;;;5.95;;
31308;SDS011;17936;52.446;10.840;2023-06-22T07:15:46;10.93;;;5.85;;
31308;SDS011;17936;52.446;10.840;2023-06-22T07:18:11;8.43;;;6.28;;
31308;SDS011;17936;52.446;10.840;2023-06-22T07:20:37;9.02;;;5.55;;
31308;SDS011;17936;52.446;10.840;2023-06-22T07:23:04;9.95;;;5.30;;
31308;SDS011;17936;52.446;10.840;2023-06-22T07:25:30;12.57;;;6.75;;
31308;SDS011;17936;52.446;10.840;2023-06-22T07:28:02;8.30;;;5.63;;
31308;SDS011;17936;52.446;10.840;2023-06-22T07:30:29;7.63;;;5.72;;
31308;SDS011;17936;52.446;10.840;2023-06-22T07:32:56;14.10;;;6.10;;
31308;SDS011;17936;52.446;10.840;2023-06-22T07:35:23;10.32;;;5.97;;
31308;SDS011;17936;52.446;10.840;2023-06-22T07:37:49;8.88;;;6.38;;
31308;SDS011;17936;52.446;10.840;2023-06-22T07:40:14;7.93;;;6.38;;
31308;SDS011;17936;52.446;10.840;2023-06-22T07:42:40;9.32;;;6.40;;
31308;SDS011;17936;52.446;10.840;2023-06-22T07:45:06;9.73;;;6.72;;
31308;SDS011;17936;52.446;10.840;2023-06-22T07:47:33;9.55;;;6.63;;
31308;SDS011;17936;52.446;10.840;2023-06-22T07:50:00;7.75;;;6.10;;
31308;SDS011;17936;52.446;10.840;2023-06-22T07:52:27;8.95;;;7.07;;
31308;SDS011;17936;52.446;10.840;2023-06-22T07:54:53;7.78;;;5.97;;
31308;SDS011;17936;52.446;10.840;2023-06-22T07:57:19;8.02;;;6.47;;
31308;SDS011;17936;52.446;10.840;2023-06-22T07:59:45;9.10;;;6.45;;
31308;SDS011;17936;52.446;10.840;2023-06-22T08:02:10;9.63;;;6.50;;
31308;SDS011;17936;52.446;10.840;2023-06-22T08:04:36;9.65;;;6.47;;
31308;SDS011;17936;52.446;10.840;2023-06-22T08:07:02;9.40;;;7.13;;
31308;SDS011;17936;52.446;10.840;2023-06-22T08:09:29;11.13;;;7.22;;
31308;SDS011;17936;52.446;10.840;2023-06-22T08:11:56;10.93;;;7.30;;
31308;SDS011;17936;52.446;10.840;2023-06-22T08:14:22;11.13;;;7.47;;
31308;SDS011;17936;52.446;10.840;2023-06-22T08:16:48;9.27;;;6.97;;
31308;SDS011;17936;52.446;10.840;2023-06-22T08:19:13;11.07;;;7.75;;
31308;SDS011;17936;52.446;10.840;2023-06-22T08:21:39;8.80;;;7.68;;
31308;SDS011;17936;52.446;10.840;2023-06-22T08:24:04;10.05;;;7.45;;
31308;SDS011;17936;52.446;10.840;2023-06-22T08:26:32;10.38;;;7.65;;
31308;SDS011;17936;52.446;10.840;2023-06-22T08:29:00;12.00;;;8.02;;
31308;SDS011;17936;52.446;10.840;2023-06-22T08:31:26;13.00;;;7.70;;
31308;SDS011;17936;52.446;10.840;2023-06-22T08:33:52;11.77;;;7.55;;
31308;SDS011;17936;52.446;10.840;2023-06-22T08:36:17;12.68;;;7.65;;
31308;SDS011;17936;52.446;10.840;2023-06-22T08:38:43;8.55;;;6.72;;
31308;SDS011;17936;52.446;10.840;2023-06-22T08:41:09;11.15;;;7.18;;
31308;SDS011;17936;52.446;10.840;2023-06-22T08:43:35;10.02;;;7.47;;
31308;SDS011;17936;52.446;10.840;2023-06-22T08:46:01;12.20;;;7.28;;
31308;SDS011;17936;52.446;10.840;2023-06-22T08:48:27;10.60;;;7.47;;
31308;SDS011;17936;52.446;10.840;2023-06-22T08:50:53;9.93;;;7.50;;
31308;SDS011;17936;52.446;10.840;2023-06-22T08:53:18;8.80;;;7.50;;
31308;SDS011;17936;52.446;10.840;2023-06-22T08:55:44;9.90;;;6.78;;
31308;SDS011;17936;52.446;10.840;2023-06-22T08:58:10;13.73;;;8.20;;
31308;SDS011;17936;52.446;10.840;2023-06-22T09:00:35;19.75;;;7.65;;
31308;SDS011;17936;52.446;10.840;2023-06-22T09:03:01;10.05;;;7.88;;
31308;SDS011;17936;52.446;10.840;2023-06-22T09:05:27;9.93;;;7.90;;
31308;SDS011;17936;52.446;10.840;2023-06-22T09:07:56;12.63;;;7.45;;
31308;SDS011;17936;52.446;10.840;2023-06-22T09:10:23;13.65;;;8.00;;
31308;SDS011;17936;52.446;10.840;2023-06-22T09:12:49;8.55;;;7.03;;
31308;SDS011;17936;52.446;10.840;2023-06-22T09:15:15;11.15;;;7.55;;
31308;SDS011;17936;52.446;10.840;2023-06-22T09:17:40;9.23;;;7.82;;
31308;SDS011;17936;52.446;10.840;2023-06-22T09:20:06;11.05;;;7.95;;
31308;SDS011;17936;52.446;10.840;2023-06-22T09:22:35;11.02;;;8.00;;
31308;SDS011;17936;52.446;10.840;2023-06-22T09:25:01;11.45;;;8.45;;
31308;SDS011;17936;52.446;10.840;2023-06-22T09:27:27;11.23;;;7.90;;
31308;SDS011;17936;52.446;10.840;2023-06-22T09:29:53;12.23;;;7.43;;
31308;SDS011;17936;52.446;10.840;2023-06-22T09:32:19;10.77;;;7.55;;
31308;SDS011;17936;52.446;10.840;2023-06-22T09:34:44;11.75;;;8.60;;
31308;SDS011;17936;52.446;10.840;2023-06-22T09:37:10;11.13;;;8.40;;
31308;SDS011;17936;52.446;10.840;2023-06-22T09:39:35;10.48;;;7.95;;
31308;SDS011;17936;52.446;10.840;2023-06-22T09:42:01;11.82;;;7.90;;
31308;SDS011;17936;52.446;10.840;2023-06-22T09:44:27;12.65;;;7.90;;
31308;SDS011;17936;52.446;10.840;2023-06-22T09:46:53;11.20;;;8.55;;
31308;SDS011;17936;52.446;10.840;2023-06-22T09:49:18;9.40;;;7.43;;
31308;SDS011;17936;52.446;10.840;2023-06-22T09:51:43;11.15;;;8.10;;
31308;SDS011;17936;52.446;10.840;2023-06-22T09:54:09;12.70;;;8.48;;
31308;SDS011;17936;52.446;10.840;2023-06-22T09:56:35;11.15;;;7.97;;
31308;SDS011;17936;52.446;10.840;2023-06-22T09:59:02;9.52;;;7.63;;
31308;SDS011;17936;52.446;10.840;2023-06-22T10:01:28;12.43;;;7.95;;
31308;SDS011;17936;52.446;10.840;2023-06-22T10:03:53;8.63;;;7.68;;
31308;SDS011;17936;52.446;10.840;2023-06-22T10:06:21;8.80;;;7.20;;
31308;SDS011;17936;52.446;10.840;2023-06-22T10:08:46;12.85;;;7.78;;
31308;SDS011;17936;52.446;10.840;2023-06-22T10:11:13;9.80;;;7.68;;
31308;SDS011;17936;52.446;10.840;2023-06-22T10:13:39;9.18;;;7.07;;
31308;SDS011;17936;52.446;10.840;2023-06-22T10:16:05;10.38;;;7.35;;
31308;SDS011;17936;52.446;10.840;2023-06-22T10:18:30;10.50;;;7.07;;
31308;SDS011;17936;52.446;10.840;2023-06-22T10:20:56;11.90;;;7.70;;
31308;SDS011;17936;52.446;10.840;2023-06-22T10:23:21;9.77;;;7.22;;
31308;SDS011;17936;52.446;10.840;2023-06-22T10:25:47;11.68;;;7.63;;
31308;SDS011;17936;52.446;10.840;2023-06-22T10:28:13;12.52;;;8.38;;
31308;SDS011;17936;52.446;10.840;2023-06-22T10:30:39;12.30;;;7.18;;
31308;SDS011;17936;52.446;10.840;2023-06-22T10:33:09;10.88;;;7.63;;
31308;SDS011;17936;52.446;10.840;2023-06-22T10:35:35;11.70;;;7.28;;
31308;SDS011;17936;52.446;10.840;2023-06-22T10:38:02;11.70;;;7.43;;
31308;SDS011;17936;52.446;10.840;2023-06-22T10:40:28;11.23;;;7.18;;
31308;SDS011;17936;52.446;10.840;2023-06-22T10:42:54;8.57;;;7.40;;
31308;SDS011;17936;52.446;10.840;2023-06-22T10:45:19;9.45;;;7.15;;
31308;SDS011;17936;52.446;10.840;2023-06-22T10:47:45;8.75;;;7.07;;
31308;SDS011;17936;52.446;10.840;2023-06-22T10:50:11;10.68;;;7.10;;
31308;SDS011;17936;52.446;10.840;2023-06-22T10:52:36;16.27;;;7.65;;
31308;SDS011;17936;52.446;10.840;2023-06-22T10:55:02;10.82;;;7.10;;
31308;SDS011;17936;52.446;10.840;2023-06-22T10:57:28;9.55;;;7.47;;
31308;SDS011;17936;52.446;10.840;2023-06-22T10:59:53;12.23;;;7.72;;
31308;SDS011;17936;52.446;10.840;2023-06-22T11:02:19;11.05;;;6.80;;
31308;SDS011;17936;52.446;10.840;2023-06-22T11:04:44;8.55;;;6.22;;
31308;SDS011;17936;52.446;10.840;2023-06-22T11:07:11;9.05;;;7.07;;
31308;SDS011;17936;52.446;10.840;2023-06-22T11:09:36;10.30;;;7.57;;
31308;SDS011;17936;52.446;10.840;2023-06-22T11:12:03;9.98;;;7.30;;
31308;SDS011;17936;52.446;10.840;2023-06-22T11:14:29;10.20;;;6.78;;
31308;SDS011;17936;52.446;10.840;2023-06-22T11:16:54;8.38;;;6.93;;
31308;SDS011;17936;52.446;10.840;2023-06-22T11:19:21;8.73;;;6.88;;
31308;SDS011;17936;52.446;10.840;2023-06-22T11:21:46;8.57;;;6.72;;
31308;SDS011;17936;52.446;10.840;2023-06-22T11:24:12;12.35;;;7.38;;
31308;SDS011;17936;52.446;10.840;2023-06-22T11:26:37;11.20;;;6.88;;
31308;SDS011;17936;52.446;10.840;2023-06-22T11:29:03;9.25;;;7.60;;
31308;SDS011;17936;52.446;10.840;2023-06-22T11:31:30;14.55;;;7.45;;
31308;SDS011;17936;52.446;10.840;2023-06-22T11:33:57;13.98;;;7.85;;
31308;SDS011;17936;52.446;10.840;2023-06-22T11:36:22;11.00;;;7.10;;
31308;SDS011;17936;52.446;10.840;2023-06-22T11:38:48;14.95;;;7.40;;
31308;SDS011;17936;52.446;10.840;2023-06-22T11:41:13;11.65;;;7.45;;
31308;SDS011;17936;52.446;10.840;2023-06-22T11:43:39;10.30;;;7.18;;
31308;SDS011;17936;52.446;10.840;2023-06-22T11:46:05;10.82;;;7.22;;
31308;SDS011;17936;52.446;10.840;2023-06-22T11:48:30;9.38;;;7.07;;
31308;SDS011;17936;52.446;10.840;2023-06-22T11:50:56;11.10;;;6.95;;
31308;SDS011;17936;52.446;10.840;2023-06-22T11:53:23;9.85;;;6.70;;
31308;SDS011;17936;52.446;10.840;2023-06-22T11:55:51;7.40;;;6.10;;
31308;SDS011;17936;52.446;10.840;2023-06-22T11:58:17;9.25;;;7.10;;
31308;SDS011;17936;52.446;10.840;2023-06-22T12:00:43;9.48;;;7.05;;
31308;SDS011;17936;52.446;10.840;2023-06-22T12:03:09;9.13;;;6.25;;
31308;SDS011;17936;52.446;10.840;2023-06-22T12:05:37;8.88;;;6.15;;
31308;SDS011;17936;52.446;10.840;2023-06-22T12:08:03;7.95;;;6.18;;
31308;SDS011;17936;52.446;10.840;2023-06-22T12:10:28;6.90;;;5.50;;
31308;SDS011;17936;52.446;10.840;2023-06-22T12:12:54;13.50;;;6.18;;
31308;SDS011;17936;52.446;10.840;2023-06-22T12:15:19;10.75;;;5.75;;
31308;SDS011;17936;52.446;10.840;2023-06-22T12:17:45;7.63;;;6.38;;
31308;SDS011;17936;52.446;10.840;2023-06-22T12:20:13;7.85;;;6.35;;
31308;SDS011;17936;52.446;10.840;2023-06-22T12:22:39;10.10;;;7.13;;
31308;SDS011;17936;52.446;10.840;2023-06-22T12:25:06;8.68;;;7.05;;
31308;SDS011;17936;52.446;10.840;2023-06-22T12:27:32;8.80;;;6.63;;
31308;SDS011;17936;52.446;10.840;2023-06-22T12:29:57;8.02;;;6.25;;
31308;SDS011;17936;52.446;10.840;2023-06-22T12:32:23;8.63;;;6.68;;
31308;SDS011;17936;52.446;10.840;2023-06-22T12:34:49;10.30;;;7.35;;
31308;SDS011;17936;52.446;10.840;2023-06-22T12:37:15;11.68;;;7.25;;
31308;SDS011;17936;52.446;10.840;2023-06-22T12:39:40;11.75;;;7.15;;
31308;SDS011;17936;52.446;10.840;2023-06-22T12:42:06;11.70;;;8.25;;
31308;SDS011;17936;52.446;10.840;2023-06-22T12:44:34;8.95;;;6.95;;
31308;SDS011;17936;52.446;10.840;2023-06-22T12:46:59;10.00;;;7.10;;
31308;SDS011;17936;52.446;10.840;2023-06-22T12:49:25;9.57;;;7.50;;
31308;SDS011;17936;52.446;10.840;2023-06-22T12:51:50;9.18;;;6.13;;
31308;SDS011;17936;52.446;10.840;2023-06-22T12:54:16;6.93;;;5.65;;
31308;SDS011;17936;52.446;10.840;2023-06-22T12:56:42;10.38;;;6.32;;
31308;SDS011;17936;52.446;10.840;2023-06-22T12:59:09;8.15;;;5.97;;
31308;SDS011;17936;52.446;10.840;2023-06-22T13:01:35;7.95;;;5.78;;
31308;SDS011;17936;52.446;10.840;2023-06-22T13:04:02;8.85;;;5.85;;
31308;SDS011;17936;52.446;10.840;2023-06-22T13:06:27;7.30;;;5.03;;
31308;SDS011;17936;52.446;10.840;2023-06-22T13:08:53;13.40;;;5.60;;
31308;SDS011;17936;52.446;10.840;2023-06-22T13:11:18;8.80;;;6.05;;
31308;SDS011;17936;52.446;10.840;2023-06-22T13:13:44;6.13;;;5.53;;
31308;SDS011;17936;52.446;10.840;2023-06-22T13:16:10;8.98;;;5.75;;
31308;SDS011;17936;52.446;10.840;2023-06-22T13:18:36;6.85;;;6.00;;
31308;SDS011;17936;52.446;10.840;2023-06-22T13:21:02;10.52;;;5.90;;
31308;SDS011;17936;52.446;10.840;2023-06-22T13:23:28;10.18;;;5.47;;
31308;SDS011;17936;52.446;10.840;2023-06-22T13:25:53;12.85;;;5.38;;
31308;SDS011;17936;52.446;10.840;2023-06-22T13:28:19;7.10;;;5.75;;
31308;SDS011;17936;52.446;10.840;2023-06-22T13:30:45;10.85;;;6.18;;
31308;SDS011;17936;52.446;10.840;2023-06-22T13:33:12;8.27;;;5.82;;
31308;SDS011;17936;52.446;10.840;2023-06-22T13:35:38;12.73;;;6.10;;
31308;SDS011;17936;52.446;10.840;2023-06-22T13:38:04;10.65;;;5.78;;
31308;SDS011;17936;52.446;10.840;2023-06-22T13:40:30;6.63;;;5.93;;
31308;SDS011;17936;52.446;10.840;2023-06-22T13:42:55;9.65;;;6.50;;
31308;SDS011;17936;52.446;10.840;2023-06-22T13:45:21;12.07;;;5.80;;
31308;SDS011;17936;52.446;10.840;2023-06-22T13:47:47;10.80;;;6.07;;
31308;SDS011;17936;52.446;10.840;2023-06-22T13:50:13;9.98;;;5.78;;
31308;SDS011;17936;52.446;10.840;2023-06-22T13:52:39;9.40;;;6.07;;
31308;SDS011;17936;52.446;10.840;2023-06-22T13:55:04;8.05;;;5.45;;
31308;SDS011;17936;52.446;10.840;2023-06-22T13:57:32;7.90;;;5.63;;
31308;SDS011;17936;52.446;10.840;2023-06-22T13:59:58;7.50;;;5.47;;
31308;SDS011;17936;52.446;10.840;2023-06-22T14:02:25;7.53;;;5.15;;
31308;SDS011;17936;52.446;10.840;2023-06-22T14:04:51;8.55;;;5.55;;
31308;SDS011;17936;52.446;10.840;2023-06-22T14:07:17;7.25;;;5.68;;
31308;SDS011;17936;52.446;10.840;2023-06-22T14:09:44;7.15;;;5.63;;
31308;SDS011;17936;52.446;10.840;2023-06-22T14:12:10;17.67;;;5.65;;
31308;SDS011;17936;52.446;10.840;2023-06-22T14:14:36;9.18;;;6.05;;
31308;SDS011;17936;52.446;10.840;2023-06-22T14:17:01;12.38;;;5.85;;
31308;SDS011;17936;52.446;10.840;2023-06-22T14:19:28;9.98;;;6.20;;
31308;SDS011;17936;52.446;10.840;2023-06-22T14:21:53;8.82;;;5.45;;
31308;SDS011;17936;52.446;10.840;2023-06-22T14:24:19;10.35;;;6.10;;
31308;SDS011;17936;52.446;10.840;2023-06-22T14:26:44;7.07;;;6.05;;